sensor_id;sensor_type;location;lat;lon;timestamp;temperature;humidity
2653;DHT22;1336;48.692;9.144;2022-08-21T05:00:07;17.00;97.20
2653;DHT22;1336;48.692;9.144;2022-08-21T05:01:03;17.00;97.20
2653;DHT22;1336;48.692;9.144;2022-08-21T05:01:54;17.00;97.20
2653;DHT22;1336;48.692;9.144;2022-08-21T05:02:47;17.00;97.20
2653;DHT22;1336;48.692;9.144;2022-08-21T05:03:39;17.00;97.20
2653;DHT22;1336;48.692;9.144;2022-08-21T05:04:33;17.00;97.20
2653;DHT22;1336;48.692;9.144;2022-08-21T05:05:27;17.00;97.20
2653;DHT22;1336;48.692;9.144;2022-08-21T05:06:19;17.00;97.20
2653;DHT22;1336;48.692;9.144;2022-08-21T05:07:14;17.00;97.20
2653;DHT22;1336;48.692;9.144;2022-08-21T05:08:07;17.00;97.20
2653;DHT22;1336;48.692;9.144;2022-08-21T05:09:00;17.00;97.20
2653;DHT22;1336;48.692;9.144;2022-08-21T05:09:54;17.00;97.20
2653;DHT22;1336;48.692;9.144;2022-08-21T05:10:45;17.00;97.20
2653;DHT22;1336;48.692;9.144;2022-08-21T05:11:37;17.00;97.20
2653;DHT22;1336;48.692;9.144;2022-08-21T05:12:28;17.00;97.20
2653;DHT22;1336;48.692;9.144;2022-08-21T05:13:20;17.00;97.20
2653;DHT22;1336;48.692;9.144;2022-08-21T05:14:11;17.00;97.20
2653;DHT22;1336;48.692;9.144;2022-08-21T05:15:04;17.00;97.20
2653;DHT22;1336;48.692;9.144;2022-08-21T05:15:56;17.00;97.20
2653;DHT22;1336;48.692;9.144;2022-08-21T05:16:49;17.00;97.20
2653;DHT22;1336;48.692;9.144;2022-08-21T05:17:40;17.00;97.20
2653;DHT22;1336;48.692;9.144;2022-08-21T05:18:32;17.00;97.20
2653;DHT22;1336;48.692;9.144;2022-08-21T05:19:23;17.10;97.20
2653;DHT22;1336;48.692;9.144;2022-08-21T05:20:14;17.10;97.20
2653;DHT22;1336;48.692;9.144;2022-08-21T05:21:05;17.10;97.20
2653;DHT22;1336;48.692;9.144;2022-08-21T05:21:57;17.10;97.20
2653;DHT22;1336;48.692;9.144;2022-08-21T05:22:48;17.10;97.20
2653;DHT22;1336;48.692;9.144;2022-08-21T05:23:40;17.10;97.20
2653;DHT22;1336;48.692;9.144;2022-08-21T05:24:31;17.20;97.20
2653;DHT22;1336;48.692;9.144;2022-08-21T05:25:23;17.20;97.20
2653;DHT22;1336;48.692;9.144;2022-08-21T05:26:15;17.20;97.20
2653;DHT22;1336;48.692;9.144;2022-08-21T05:27:06;17.20;97.20
2653;DHT22;1336;48.692;9.144;2022-08-21T05:27:57;17.20;97.20
2653;DHT22;1336;48.692;9.144;2022-08-21T05:28:49;17.20;97.20
2653;DHT22;1336;48.692;9.144;2022-08-21T05:29:40;17.20;97.20
2653;DHT22;1336;48.692;9.144;2022-08-21T05:30:32;17.20;97.20
2653;DHT22;1336;48.692;9.144;2022-08-21T05:31:24;17.20;97.20
2653;DHT22;1336;48.692;9.144;2022-08-21T05:32:16;17.20;97.20
2653;DHT22;1336;48.692;9.144;2022-08-21T05:33:08;17.30;97.20
2653;DHT22;1336;48.692;9.144;2022-08-21T05:34:00;17.20;97.20
2653;DHT22;1336;48.692;9.144;2022-08-21T05:34:51;17.30;97.20
2653;DHT22;1336;48.692;9.144;2022-08-21T05:35:42;17.30;97.20
2653;DHT22;1336;48.692;9.144;2022-08-21T05:36:34;17.30;97.20
2653;DHT22;1336;48.692;9.144;2022-08-21T05:37:25;17.40;97.20
2653;DHT22;1336;48.692;9.144;2022-08-21T05:38:16;17.40;97.20
2653;DHT22;1336;48.692;9.144;2022-08-21T05:39:07;17.40;97.20
2653;DHT22;1336;48.692;9.144;2022-08-21T05:39:59;17.40;97.20
2653;DHT22;1336;48.692;9.144;2022-08-21T05:40:50;17.50;97.20
2653;DHT22;1336;48.692;9.144;2022-08-21T05:41:42;17.50;97.20
2653;DHT22;1336;48.692;9.144;2022-08-21T05:42:33;17.50;97.20
2653;DHT22;1336;48.692;9.144;2022-08-21T05:43:25;17.50;97.20
2653;DHT22;1336;48.692;9.144;2022-08-21T05:44:15;17.50;97.20
2653;DHT22;1336;48.692;9.144;2022-08-21T05:45:08;17.60;97.20
2653;DHT22;1336;48.692;9.144;2022-08-21T05:45:58;17.60;97.20
2653;DHT22;1336;48.692;9.144;2022-08-21T05:46:52;17.60;97.20
2653;DHT22;1336;48.692;9.144;2022-08-21T05:47:43;17.60;97.20
2653;DHT22;1336;48.692;9.144;2022-08-21T05:48:35;17.60;97.20
2653;DHT22;1336;48.692;9.144;2022-08-21T05:49:26;17.60;97.20
2653;DHT22;1336;48.692;9.144;2022-08-21T05:50:18;17.70;97.20
2653;DHT22;1336;48.692;9.144;2022-08-21T05:51:11;17.70;97.20
2653;DHT22;1336;48.692;9.144;2022-08-21T05:52:04;17.70;97.20
2653;DHT22;1336;48.692;9.144;2022-08-21T05:52:54;17.70;97.20
2653;DHT22;1336;48.692;9.144;2022-08-21T05:53:46;17.80;97.20
2653;DHT22;1336;48.692;9.144;2022-08-21T05:54:38;17.80;97.20
2653;DHT22;1336;48.692;9.144;2022-08-21T05:55:29;17.80;97.20
2653;DHT22;1336;48.692;9.144;2022-08-21T05:56:20;17.80;97.20
2653;DHT22;1336;48.692;9.144;2022-08-21T05:57:12;17.90;97.20
2653;DHT22;1336;48.692;9.144;2022-08-21T05:58:03;17.90;97.20
2653;DHT22;1336;48.692;9.144;2022-08-21T05:58:55;17.90;97.20
2653;DHT22;1336;48.692;9.144;2022-08-21T05:59:46;17.90;97.20
2653;DHT22;1336;48.692;9.144;2022-08-21T06:00:38;18.00;97.20
2653;DHT22;1336;48.692;9.144;2022-08-21T06:01:29;18.00;97.20
2653;DHT22;1336;48.692;9.144;2022-08-21T06:02:22;18.00;97.20
2653;DHT22;1336;48.692;9.144;2022-08-21T06:03:14;18.00;97.20
2653;DHT22;1336;48.692;9.144;2022-08-21T06:04:07;18.00;97.20
2653;DHT22;1336;48.692;9.144;2022-08-21T06:04:58;18.10;97.20
2653;DHT22;1336;48.692;9.144;2022-08-21T06:05:50;18.10;97.20
2653;DHT22;1336;48.692;9.144;2022-08-21T06:06:41;18.10;97.20
2653;DHT22;1336;48.692;9.144;2022-08-21T06:07:32;18.10;97.20
2653;DHT22;1336;48.692;9.144;2022-08-21T06:08:24;18.10;97.20
2653;DHT22;1336;48.692;9.144;2022-08-21T06:09:16;18.20;97.20
2653;DHT22;1336;48.692;9.144;2022-08-21T06:10:07;18.20;97.20
2653;DHT22;1336;48.692;9.144;2022-08-21T06:11:00;18.20;97.20
2653;DHT22;1336;48.692;9.144;2022-08-21T06:11:51;18.20;97.20
2653;DHT22;1336;48.692;9.144;2022-08-21T06:12:43;18.20;97.20
2653;DHT22;1336;48.692;9.144;2022-08-21T06:13:35;18.20;97.20
2653;DHT22;1336;48.692;9.144;2022-08-21T06:14:27;18.30;97.20
2653;DHT22;1336;48.692;9.144;2022-08-21T06:15:18;18.30;97.20
2653;DHT22;1336;48.692;9.144;2022-08-21T06:16:12;18.30;97.20
2653;DHT22;1336;48.692;9.144;2022-08-21T06:17:04;18.30;97.20
2653;DHT22;1336;48.692;9.144;2022-08-21T06:17:57;18.40;97.20
2653;DHT22;1336;48.692;9.144;2022-08-21T06:18:48;18.40;97.20
2653;DHT22;1336;48.692;9.144;2022-08-21T06:19:40;18.40;97.20
2653;DHT22;1336;48.692;9.144;2022-08-21T06:20:31;18.40;97.20
2653;DHT22;1336;48.692;9.144;2022-08-21T06:21:23;18.40;97.20
2653;DHT22;1336;48.692;9.144;2022-08-21T06:22:13;18.40;97.20
2653;DHT22;1336;48.692;9.144;2022-08-21T06:23:05;18.40;97.20
2653;DHT22;1336;48.692;9.144;2022-08-21T06:23:56;18.40;97.20
2653;DHT22;1336;48.692;9.144;2022-08-21T06:24:48;18.40;97.20
2653;DHT22;1336;48.692;9.144;2022-08-21T06:25:39;18.40;97.20
2653;DHT22;1336;48.692;9.144;2022-08-21T06:26:31;18.40;97.20
2653;DHT22;1336;48.692;9.144;2022-08-21T06:27:22;18.40;97.20
2653;DHT22;1336;48.692;9.144;2022-08-21T06:28:13;18.40;97.20
2653;DHT22;1336;48.692;9.144;2022-08-21T06:29:04;18.40;97.20
2653;DHT22;1336;48.692;9.144;2022-08-21T06:29:56;18.40;97.20
2653;DHT22;1336;48.692;9.144;2022-08-21T06:30:48;18.40;97.20
2653;DHT22;1336;48.692;9.144;2022-08-21T06:31:39;18.40;97.20
2653;DHT22;1336;48.692;9.144;2022-08-21T06:32:31;18.50;97.20
2653;DHT22;1336;48.692;9.144;2022-08-21T06:33:24;18.50;97.20
2653;DHT22;1336;48.692;9.144;2022-08-21T06:34:16;18.50;97.20
2653;DHT22;1336;48.692;9.144;2022-08-21T06:35:08;18.50;97.20
2653;DHT22;1336;48.692;9.144;2022-08-21T06:35:59;18.50;97.20
2653;DHT22;1336;48.692;9.144;2022-08-21T06:36:51;18.50;97.20
2653;DHT22;1336;48.692;9.144;2022-08-21T06:37:42;18.60;97.20
2653;DHT22;1336;48.692;9.144;2022-08-21T06:38:33;18.60;97.20
2653;DHT22;1336;48.692;9.144;2022-08-21T06:39:25;18.60;97.20
2653;DHT22;1336;48.692;9.144;2022-08-21T06:40:17;18.70;97.20
2653;DHT22;1336;48.692;9.144;2022-08-21T06:41:08;18.70;97.20
2653;DHT22;1336;48.692;9.144;2022-08-21T06:41:59;18.70;97.20
2653;DHT22;1336;48.692;9.144;2022-08-21T06:42:50;18.80;97.20
2653;DHT22;1336;48.692;9.144;2022-08-21T06:43:42;18.80;97.20
2653;DHT22;1336;48.692;9.144;2022-08-21T06:44:33;18.90;97.20
2653;DHT22;1336;48.692;9.144;2022-08-21T06:45:25;18.90;97.20
2653;DHT22;1336;48.692;9.144;2022-08-21T06:46:15;19.00;97.20
2653;DHT22;1336;48.692;9.144;2022-08-21T06:47:07;19.00;97.20
2653;DHT22;1336;48.692;9.144;2022-08-21T06:47:58;19.00;97.20
2653;DHT22;1336;48.692;9.144;2022-08-21T06:48:51;19.10;97.20
2653;DHT22;1336;48.692;9.144;2022-08-21T06:49:42;19.10;97.20
2653;DHT22;1336;48.692;9.144;2022-08-21T06:50:34;19.10;97.20
2653;DHT22;1336;48.692;9.144;2022-08-21T06:51:27;19.20;97.20
2653;DHT22;1336;48.692;9.144;2022-08-21T06:52:18;19.20;97.20
2653;DHT22;1336;48.692;9.144;2022-08-21T06:53:12;19.20;97.20
2653;DHT22;1336;48.692;9.144;2022-08-21T06:54:03;19.30;97.20
2653;DHT22;1336;48.692;9.144;2022-08-21T06:54:55;19.30;97.20
2653;DHT22;1336;48.692;9.144;2022-08-21T06:55:46;19.40;97.20
2653;DHT22;1336;48.692;9.144;2022-08-21T06:56:38;19.40;97.20
2653;DHT22;1336;48.692;9.144;2022-08-21T06:57:29;19.40;97.20
2653;DHT22;1336;48.692;9.144;2022-08-21T06:58:21;19.40;97.20
2653;DHT22;1336;48.692;9.144;2022-08-21T06:59:12;19.50;97.20
2653;DHT22;1336;48.692;9.144;2022-08-21T07:00:04;19.50;97.20
2653;DHT22;1336;48.692;9.144;2022-08-21T07:00:55;19.50;97.20
2653;DHT22;1336;48.692;9.144;2022-08-21T07:01:47;19.50;97.20
2653;DHT22;1336;48.692;9.144;2022-08-21T07:02:38;19.60;97.20
2653;DHT22;1336;48.692;9.144;2022-08-21T07:03:36;19.60;97.20
2653;DHT22;1336;48.692;9.144;2022-08-21T07:04:28;19.60;97.20
2653;DHT22;1336;48.692;9.144;2022-08-21T07:05:20;19.70;97.20
2653;DHT22;1336;48.692;9.144;2022-08-21T07:06:11;19.70;97.20
2653;DHT22;1336;48.692;9.144;2022-08-21T07:07:03;19.70;97.20
2653;DHT22;1336;48.692;9.144;2022-08-21T07:07:54;19.80;97.20
2653;DHT22;1336;48.692;9.144;2022-08-21T07:08:46;19.80;97.20
2653;DHT22;1336;48.692;9.144;2022-08-21T07:09:37;19.80;97.20
2653;DHT22;1336;48.692;9.144;2022-08-21T07:10:29;19.80;97.20
2653;DHT22;1336;48.692;9.144;2022-08-21T07:11:22;19.90;97.20
2653;DHT22;1336;48.692;9.144;2022-08-21T07:12:14;19.90;97.20
2653;DHT22;1336;48.692;9.144;2022-08-21T07:13:05;20.00;97.20
2653;DHT22;1336;48.692;9.144;2022-08-21T07:13:57;20.00;97.20
2653;DHT22;1336;48.692;9.144;2022-08-21T07:14:48;20.00;97.20
2653;DHT22;1336;48.692;9.144;2022-08-21T07:15:41;20.00;97.20
2653;DHT22;1336;48.692;9.144;2022-08-21T07:16:32;20.00;97.20
2653;DHT22;1336;48.692;9.144;2022-08-21T07:17:24;20.10;97.20
2653;DHT22;1336;48.692;9.144;2022-08-21T07:18:14;20.10;97.20
2653;DHT22;1336;48.692;9.144;2022-08-21T07:19:06;20.10;97.20
2653;DHT22;1336;48.692;9.144;2022-08-21T07:19:58;20.10;97.20
2653;DHT22;1336;48.692;9.144;2022-08-21T07:20:50;20.20;97.20
2653;DHT22;1336;48.692;9.144;2022-08-21T07:21:41;20.20;97.20
2653;DHT22;1336;48.692;9.144;2022-08-21T07:22:33;20.20;97.20
2653;DHT22;1336;48.692;9.144;2022-08-21T07:23:28;20.20;97.20
2653;DHT22;1336;48.692;9.144;2022-08-21T07:24:20;20.30;97.20
2653;DHT22;1336;48.692;9.144;2022-08-21T07:25:11;20.30;97.20
2653;DHT22;1336;48.692;9.144;2022-08-21T07:26:04;20.30;97.20
2653;DHT22;1336;48.692;9.144;2022-08-21T07:26:55;20.40;97.20
2653;DHT22;1336;48.692;9.144;2022-08-21T07:27:47;20.40;97.20
2653;DHT22;1336;48.692;9.144;2022-08-21T07:28:37;20.50;97.20
2653;DHT22;1336;48.692;9.144;2022-08-21T07:29:29;20.50;97.20
2653;DHT22;1336;48.692;9.144;2022-08-21T07:30:21;20.50;97.20
2653;DHT22;1336;48.692;9.144;2022-08-21T07:31:15;20.60;97.20
2653;DHT22;1336;48.692;9.144;2022-08-21T07:32:06;20.60;97.20
2653;DHT22;1336;48.692;9.144;2022-08-21T07:32:58;20.70;97.20
2653;DHT22;1336;48.692;9.144;2022-08-21T07:33:49;20.80;97.20
2653;DHT22;1336;48.692;9.144;2022-08-21T07:34:41;20.80;97.20
2653;DHT22;1336;48.692;9.144;2022-08-21T07:35:33;20.80;97.20
2653;DHT22;1336;48.692;9.144;2022-08-21T07:36:25;20.90;97.20
2653;DHT22;1336;48.692;9.144;2022-08-21T07:37:16;20.90;97.20
2653;DHT22;1336;48.692;9.144;2022-08-21T07:38:08;21.00;97.20
2653;DHT22;1336;48.692;9.144;2022-08-21T07:38:59;21.00;97.20
2653;DHT22;1336;48.692;9.144;2022-08-21T07:39:51;21.10;97.20
2653;DHT22;1336;48.692;9.144;2022-08-21T07:40:41;21.10;97.20
2653;DHT22;1336;48.692;9.144;2022-08-21T07:41:33;21.20;97.20
2653;DHT22;1336;48.692;9.144;2022-08-21T07:42:25;21.20;97.20
2653;DHT22;1336;48.692;9.144;2022-08-21T07:43:17;21.20;97.20
2653;DHT22;1336;48.692;9.144;2022-08-21T07:44:08;21.30;97.20
2653;DHT22;1336;48.692;9.144;2022-08-21T07:45:00;21.30;97.20
2653;DHT22;1336;48.692;9.144;2022-08-21T07:45:51;21.30;97.20
2653;DHT22;1336;48.692;9.144;2022-08-21T07:46:44;21.30;97.20
2653;DHT22;1336;48.692;9.144;2022-08-21T07:47:35;21.30;97.20
2653;DHT22;1336;48.692;9.144;2022-08-21T07:48:27;21.40;97.20
2653;DHT22;1336;48.692;9.144;2022-08-21T07:49:17;21.40;97.20
2653;DHT22;1336;48.692;9.144;2022-08-21T07:50:10;21.50;97.20
2653;DHT22;1336;48.692;9.144;2022-08-21T07:51:06;21.50;97.20
2653;DHT22;1336;48.692;9.144;2022-08-21T07:51:58;21.50;97.20
2653;DHT22;1336;48.692;9.144;2022-08-21T07:52:50;21.60;97.20
2653;DHT22;1336;48.692;9.144;2022-08-21T07:53:46;21.60;97.20
2653;DHT22;1336;48.692;9.144;2022-08-21T07:54:37;21.70;97.20
2653;DHT22;1336;48.692;9.144;2022-08-21T07:55:29;21.70;97.20
2653;DHT22;1336;48.692;9.144;2022-08-21T07:56:21;21.80;97.20
2653;DHT22;1336;48.692;9.144;2022-08-21T07:57:12;21.80;97.20
2653;DHT22;1336;48.692;9.144;2022-08-21T07:58:03;21.80;97.20
2653;DHT22;1336;48.692;9.144;2022-08-21T07:58:55;21.90;97.20
2653;DHT22;1336;48.692;9.144;2022-08-21T07:59:47;21.90;97.20
2653;DHT22;1336;48.692;9.144;2022-08-21T08:00:40;21.90;97.20
2653;DHT22;1336;48.692;9.144;2022-08-21T08:01:31;21.90;97.20
2653;DHT22;1336;48.692;9.144;2022-08-21T08:02:24;21.90;97.20
2653;DHT22;1336;48.692;9.144;2022-08-21T08:03:15;21.90;97.20
2653;DHT22;1336;48.692;9.144;2022-08-21T08:04:06;21.90;97.20
2653;DHT22;1336;48.692;9.144;2022-08-21T08:04:59;21.90;97.20
2653;DHT22;1336;48.692;9.144;2022-08-21T08:05:51;21.90;97.20
2653;DHT22;1336;48.692;9.144;2022-08-21T08:06:43;22.00;97.20
2653;DHT22;1336;48.692;9.144;2022-08-21T08:07:36;22.00;97.20
2653;DHT22;1336;48.692;9.144;2022-08-21T08:08:27;22.00;97.20
2653;DHT22;1336;48.692;9.144;2022-08-21T08:09:19;22.00;97.20
2653;DHT22;1336;48.692;9.144;2022-08-21T08:10:11;22.00;97.20
2653;DHT22;1336;48.692;9.144;2022-08-21T08:11:03;22.00;97.20
2653;DHT22;1336;48.692;9.144;2022-08-21T08:11:53;22.00;97.20
2653;DHT22;1336;48.692;9.144;2022-08-21T08:12:46;22.00;97.20
2653;DHT22;1336;48.692;9.144;2022-08-21T08:13:38;22.10;97.20
2653;DHT22;1336;48.692;9.144;2022-08-21T08:14:31;22.10;97.20
2653;DHT22;1336;48.692;9.144;2022-08-21T08:15:24;22.10;97.20
2653;DHT22;1336;48.692;9.144;2022-08-21T08:16:16;22.10;97.20
2653;DHT22;1336;48.692;9.144;2022-08-21T08:17:07;22.10;97.20
2653;DHT22;1336;48.692;9.144;2022-08-21T08:17:59;22.20;97.20
2653;DHT22;1336;48.692;9.144;2022-08-21T08:18:51;22.20;97.20
2653;DHT22;1336;48.692;9.144;2022-08-21T08:19:44;22.20;97.20
2653;DHT22;1336;48.692;9.144;2022-08-21T08:20:35;22.30;97.20
2653;DHT22;1336;48.692;9.144;2022-08-21T08:21:27;22.30;97.20
2653;DHT22;1336;48.692;9.144;2022-08-21T08:22:21;22.40;97.20
2653;DHT22;1336;48.692;9.144;2022-08-21T08:23:14;22.50;97.20
2653;DHT22;1336;48.692;9.144;2022-08-21T08:24:05;22.50;97.20
2653;DHT22;1336;48.692;9.144;2022-08-21T08:24:57;22.50;97.20
2653;DHT22;1336;48.692;9.144;2022-08-21T08:25:50;22.60;97.20
2653;DHT22;1336;48.692;9.144;2022-08-21T08:26:41;22.60;97.20
2653;DHT22;1336;48.692;9.144;2022-08-21T08:27:32;22.70;97.20
2653;DHT22;1336;48.692;9.144;2022-08-21T08:28:24;22.80;97.20
2653;DHT22;1336;48.692;9.144;2022-08-21T08:29:15;22.80;97.20
2653;DHT22;1336;48.692;9.144;2022-08-21T08:30:09;22.90;97.20
2653;DHT22;1336;48.692;9.144;2022-08-21T08:31:01;23.00;97.20
2653;DHT22;1336;48.692;9.144;2022-08-21T08:31:53;23.00;97.20
2653;DHT22;1336;48.692;9.144;2022-08-21T08:32:44;23.00;97.20
2653;DHT22;1336;48.692;9.144;2022-08-21T08:33:36;23.10;97.20
2653;DHT22;1336;48.692;9.144;2022-08-21T08:34:27;23.10;97.20
2653;DHT22;1336;48.692;9.144;2022-08-21T08:35:19;23.10;97.20
2653;DHT22;1336;48.692;9.144;2022-08-21T08:36:13;23.20;97.20
2653;DHT22;1336;48.692;9.144;2022-08-21T08:37:07;23.20;97.20
2653;DHT22;1336;48.692;9.144;2022-08-21T08:38:00;23.20;97.20
2653;DHT22;1336;48.692;9.144;2022-08-21T08:38:51;23.30;97.20
2653;DHT22;1336;48.692;9.144;2022-08-21T08:39:42;23.30;97.20
2653;DHT22;1336;48.692;9.144;2022-08-21T08:40:38;23.30;97.20
2653;DHT22;1336;48.692;9.144;2022-08-21T08:41:31;23.40;97.20
2653;DHT22;1336;48.692;9.144;2022-08-21T08:42:26;23.50;97.20
2653;DHT22;1336;48.692;9.144;2022-08-21T08:43:17;23.50;97.20
2653;DHT22;1336;48.692;9.144;2022-08-21T08:44:10;23.60;97.20
2653;DHT22;1336;48.692;9.144;2022-08-21T08:45:03;23.70;97.20
2653;DHT22;1336;48.692;9.144;2022-08-21T08:45:59;23.80;97.20
2653;DHT22;1336;48.692;9.144;2022-08-21T08:46:52;23.80;97.20
2653;DHT22;1336;48.692;9.144;2022-08-21T08:47:47;23.90;97.20
2653;DHT22;1336;48.692;9.144;2022-08-21T08:48:45;23.90;97.20
2653;DHT22;1336;48.692;9.144;2022-08-21T08:49:50;23.90;97.20
2653;DHT22;1336;48.692;9.144;2022-08-21T08:50:48;24.00;97.20
2653;DHT22;1336;48.692;9.144;2022-08-21T08:51:45;24.00;97.20
2653;DHT22;1336;48.692;9.144;2022-08-21T08:52:41;24.10;97.20
2653;DHT22;1336;48.692;9.144;2022-08-21T08:53:44;24.10;97.20
2653;DHT22;1336;48.692;9.144;2022-08-21T08:54:39;24.20;97.20
2653;DHT22;1336;48.692;9.144;2022-08-21T08:55:37;24.20;97.20
2653;DHT22;1336;48.692;9.144;2022-08-21T08:56:30;24.30;97.20
2653;DHT22;1336;48.692;9.144;2022-08-21T08:57:24;24.40;97.20
2653;DHT22;1336;48.692;9.144;2022-08-21T08:58:20;24.40;97.20
2653;DHT22;1336;48.692;9.144;2022-08-21T08:59:15;24.50;97.20
2653;DHT22;1336;48.692;9.144;2022-08-21T09:00:11;24.50;97.20
2653;DHT22;1336;48.692;9.144;2022-08-21T09:01:16;24.60;97.20
2653;DHT22;1336;48.692;9.144;2022-08-21T09:02:09;24.60;97.20
2653;DHT22;1336;48.692;9.144;2022-08-21T09:03:03;24.70;97.20
2653;DHT22;1336;48.692;9.144;2022-08-21T09:03:54;24.80;97.20
2653;DHT22;1336;48.692;9.144;2022-08-21T09:04:48;24.80;97.20
2653;DHT22;1336;48.692;9.144;2022-08-21T09:05:43;24.90;97.20
2653;DHT22;1336;48.692;9.144;2022-08-21T09:06:49;24.90;97.20
2653;DHT22;1336;48.692;9.144;2022-08-21T09:07:51;24.90;97.20
2653;DHT22;1336;48.692;9.144;2022-08-21T09:08:53;24.90;97.20
2653;DHT22;1336;48.692;9.144;2022-08-21T09:09:55;24.90;97.20
2653;DHT22;1336;48.692;9.144;2022-08-21T09:10:59;24.90;97.20
2653;DHT22;1336;48.692;9.144;2022-08-21T09:11:59;24.90;97.20
2653;DHT22;1336;48.692;9.144;2022-08-21T09:12:56;24.90;97.20
2653;DHT22;1336;48.692;9.144;2022-08-21T09:14:01;24.80;97.20
2653;DHT22;1336;48.692;9.144;2022-08-21T09:15:02;24.80;97.20
2653;DHT22;1336;48.692;9.144;2022-08-21T09:16:03;24.80;97.20
2653;DHT22;1336;48.692;9.144;2022-08-21T09:17:04;24.70;97.20
2653;DHT22;1336;48.692;9.144;2022-08-21T09:18:09;24.70;97.20
2653;DHT22;1336;48.692;9.144;2022-08-21T09:19:07;24.70;97.20
2653;DHT22;1336;48.692;9.144;2022-08-21T09:20:09;24.80;97.20
2653;DHT22;1336;48.692;9.144;2022-08-21T09:21:12;24.80;97.20
2653;DHT22;1336;48.692;9.144;2022-08-21T09:22:08;24.90;97.20
2653;DHT22;1336;48.692;9.144;2022-08-21T09:23:14;24.90;97.20
2653;DHT22;1336;48.692;9.144;2022-08-21T09:24:22;25.00;97.20
2653;DHT22;1336;48.692;9.144;2022-08-21T09:25:21;25.10;97.20
2653;DHT22;1336;48.692;9.144;2022-08-21T09:26:16;25.20;97.20
2653;DHT22;1336;48.692;9.144;2022-08-21T09:27:10;25.20;97.20
2653;DHT22;1336;48.692;9.144;2022-08-21T09:28:02;25.30;97.20
2653;DHT22;1336;48.692;9.144;2022-08-21T09:28:58;25.40;97.20
2653;DHT22;1336;48.692;9.144;2022-08-21T09:29:53;25.50;97.20
2653;DHT22;1336;48.692;9.144;2022-08-21T09:30:45;25.60;97.20
2653;DHT22;1336;48.692;9.144;2022-08-21T09:31:36;25.60;97.20
2653;DHT22;1336;48.692;9.144;2022-08-21T09:32:30;25.70;97.20
2653;DHT22;1336;48.692;9.144;2022-08-21T09:33:22;25.80;97.20
2653;DHT22;1336;48.692;9.144;2022-08-21T09:34:24;25.80;97.20
2653;DHT22;1336;48.692;9.144;2022-08-21T09:35:19;25.90;97.20
2653;DHT22;1336;48.692;9.144;2022-08-21T09:36:10;26.00;97.20
2653;DHT22;1336;48.692;9.144;2022-08-21T09:37:02;26.10;97.20
2653;DHT22;1336;48.692;9.144;2022-08-21T09:37:56;26.10;97.20
2653;DHT22;1336;48.692;9.144;2022-08-21T09:38:53;26.20;97.20
2653;DHT22;1336;48.692;9.144;2022-08-21T09:39:46;26.30;97.20
2653;DHT22;1336;48.692;9.144;2022-08-21T09:40:41;26.30;97.20
2653;DHT22;1336;48.692;9.144;2022-08-21T09:41:34;26.40;97.20
2653;DHT22;1336;48.692;9.144;2022-08-21T09:42:30;26.40;97.20
2653;DHT22;1336;48.692;9.144;2022-08-21T09:43:23;26.50;97.20
2653;DHT22;1336;48.692;9.144;2022-08-21T09:44:25;26.50;97.20
2653;DHT22;1336;48.692;9.144;2022-08-21T09:45:18;26.50;97.20
2653;DHT22;1336;48.692;9.144;2022-08-21T09:46:11;26.50;97.20
2653;DHT22;1336;48.692;9.144;2022-08-21T09:47:02;26.40;97.20
2653;DHT22;1336;48.692;9.144;2022-08-21T09:47:54;26.40;97.20
2653;DHT22;1336;48.692;9.144;2022-08-21T09:48:47;26.40;97.20
2653;DHT22;1336;48.692;9.144;2022-08-21T09:49:41;26.40;97.20
2653;DHT22;1336;48.692;9.144;2022-08-21T09:50:32;26.40;97.20
2653;DHT22;1336;48.692;9.144;2022-08-21T09:51:25;26.40;97.20
2653;DHT22;1336;48.692;9.144;2022-08-21T09:52:19;26.50;97.20
2653;DHT22;1336;48.692;9.144;2022-08-21T09:53:18;26.50;97.20
2653;DHT22;1336;48.692;9.144;2022-08-21T09:54:17;26.60;97.20
2653;DHT22;1336;48.692;9.144;2022-08-21T09:55:16;26.60;97.20
2653;DHT22;1336;48.692;9.144;2022-08-21T09:56:30;26.50;97.20
2653;DHT22;1336;48.692;9.144;2022-08-21T09:57:39;26.50;97.20
2653;DHT22;1336;48.692;9.144;2022-08-21T09:58:34;26.40;97.20
2653;DHT22;1336;48.692;9.144;2022-08-21T09:59:28;26.30;97.20
2653;DHT22;1336;48.692;9.144;2022-08-21T10:00:26;26.30;97.20
2653;DHT22;1336;48.692;9.144;2022-08-21T10:01:22;26.20;97.20
2653;DHT22;1336;48.692;9.144;2022-08-21T10:02:25;26.10;97.20
2653;DHT22;1336;48.692;9.144;2022-08-21T10:03:20;26.00;97.20
2653;DHT22;1336;48.692;9.144;2022-08-21T10:04:12;25.90;97.20
2653;DHT22;1336;48.692;9.144;2022-08-21T10:05:08;25.90;97.20
2653;DHT22;1336;48.692;9.144;2022-08-21T10:06:01;25.80;97.20
2653;DHT22;1336;48.692;9.144;2022-08-21T10:07:06;25.90;97.20
2653;DHT22;1336;48.692;9.144;2022-08-21T10:07:57;25.80;97.20
2653;DHT22;1336;48.692;9.144;2022-08-21T10:08:48;25.80;97.20
2653;DHT22;1336;48.692;9.144;2022-08-21T10:09:39;25.90;97.20
2653;DHT22;1336;48.692;9.144;2022-08-21T10:10:37;25.90;97.20
2653;DHT22;1336;48.692;9.144;2022-08-21T10:11:28;26.00;97.20
2653;DHT22;1336;48.692;9.144;2022-08-21T10:12:23;26.10;97.20
2653;DHT22;1336;48.692;9.144;2022-08-21T10:13:21;26.10;97.20
2653;DHT22;1336;48.692;9.144;2022-08-21T10:14:17;26.10;97.20
2653;DHT22;1336;48.692;9.144;2022-08-21T10:15:18;26.10;97.20
2653;DHT22;1336;48.692;9.144;2022-08-21T10:16:27;26.00;97.20
2653;DHT22;1336;48.692;9.144;2022-08-21T10:17:26;26.00;97.20
2653;DHT22;1336;48.692;9.144;2022-08-21T10:18:26;25.90;97.20
2653;DHT22;1336;48.692;9.144;2022-08-21T10:19:25;25.90;97.20
2653;DHT22;1336;48.692;9.144;2022-08-21T10:20:22;26.00;97.20
2653;DHT22;1336;48.692;9.144;2022-08-21T10:21:17;26.00;97.20
2653;DHT22;1336;48.692;9.144;2022-08-21T10:22:22;26.10;97.20
2653;DHT22;1336;48.692;9.144;2022-08-21T10:23:29;26.10;97.20
2653;DHT22;1336;48.692;9.144;2022-08-21T10:24:29;26.20;97.20
2653;DHT22;1336;48.692;9.144;2022-08-21T10:25:28;26.20;97.20
2653;DHT22;1336;48.692;9.144;2022-08-21T10:26:35;26.30;97.20
2653;DHT22;1336;48.692;9.144;2022-08-21T10:27:35;26.40;97.20
2653;DHT22;1336;48.692;9.144;2022-08-21T10:28:35;26.40;97.20
2653;DHT22;1336;48.692;9.144;2022-08-21T10:29:42;26.50;97.20
2653;DHT22;1336;48.692;9.144;2022-08-21T10:30:40;26.40;97.20
2653;DHT22;1336;48.692;9.144;2022-08-21T10:31:41;26.40;97.20
2653;DHT22;1336;48.692;9.144;2022-08-21T10:32:55;26.30;97.20
2653;DHT22;1336;48.692;9.144;2022-08-21T10:33:54;26.20;97.20
2653;DHT22;1336;48.692;9.144;2022-08-21T10:35:00;26.10;97.20
2653;DHT22;1336;48.692;9.144;2022-08-21T10:35:57;26.10;97.20
2653;DHT22;1336;48.692;9.144;2022-08-21T10:37:06;26.10;97.20
2653;DHT22;1336;48.692;9.144;2022-08-21T10:39:25;26.20;97.20
2653;DHT22;1336;48.692;9.144;2022-08-21T10:40:24;26.30;97.20
2653;DHT22;1336;48.692;9.144;2022-08-21T10:41:26;26.30;97.20
2653;DHT22;1336;48.692;9.144;2022-08-21T10:42:30;26.40;97.20
2653;DHT22;1336;48.692;9.144;2022-08-21T10:43:29;26.50;97.20
2653;DHT22;1336;48.692;9.144;2022-08-21T10:44:30;26.60;97.20
2653;DHT22;1336;48.692;9.144;2022-08-21T10:45:36;26.70;97.20
2653;DHT22;1336;48.692;9.144;2022-08-21T10:46:39;26.80;97.20
2653;DHT22;1336;48.692;9.144;2022-08-21T10:47:35;26.90;97.20
2653;DHT22;1336;48.692;9.144;2022-08-21T10:48:31;27.00;97.20
2653;DHT22;1336;48.692;9.144;2022-08-21T10:49:39;27.10;97.20
2653;DHT22;1336;48.692;9.144;2022-08-21T10:50:38;27.10;97.20
2653;DHT22;1336;48.692;9.144;2022-08-21T10:51:40;27.20;97.20
2653;DHT22;1336;48.692;9.144;2022-08-21T10:52:45;27.20;97.20
2653;DHT22;1336;48.692;9.144;2022-08-21T10:53:51;27.20;97.20